sensor_id;sensor_type;location;lat;lon;timestamp;pressure;altitude;pressure_sealevel;temperature;humidity
75855;BME280;64502;59.976;30.316;2022-11-20T00:02:17;101898.47;;;-3.01;67.45
75855;BME280;64502;59.976;30.316;2022-11-20T00:04:43;101900.31;;;-2.94;67.36
75855;BME280;64502;59.976;30.316;2022-11-20T00:07:08;101898.66;;;-2.91;67.30
75855;BME280;64502;59.976;30.316;2022-11-20T00:09:34;101897.78;;;-2.91;67.01
75855;BME280;64502;59.976;30.316;2022-11-20T00:11:59;101896.03;;;-2.92;67.25
75855;BME280;64502;59.976;30.316;2022-11-20T00:14:24;101895.22;;;-2.90;66.83
75855;BME280;64502;59.976;30.316;2022-11-20T00:16:50;101898.75;;;-2.84;67.03
75855;BME280;64502;59.976;30.316;2022-11-20T00:19:16;101899.72;;;-2.78;67.06
75855;BME280;64502;59.976;30.316;2022-11-20T00:21:41;101895.44;;;-2.76;66.60
75855;BME280;64502;59.976;30.316;2022-11-20T00:24:08;101895.47;;;-2.74;66.59
75855;BME280;64502;59.976;30.316;2022-11-20T00:26:34;101887.75;;;-2.73;66.80
75855;BME280;64502;59.976;30.316;2022-11-20T00:29:00;101885.22;;;-2.70;66.88
75855;BME280;64502;59.976;30.316;2022-11-20T00:31:27;101886.13;;;-2.66;66.73
75855;BME280;64502;59.976;30.316;2022-11-20T00:33:53;101880.16;;;-2.60;66.60
75855;BME280;64502;59.976;30.316;2022-11-20T00:36:21;101884.47;;;-2.61;66.63
75855;BME280;64502;59.976;30.316;2022-11-20T00:38:50;101878.38;;;-2.66;66.72
75855;BME280;64502;59.976;30.316;2022-11-20T00:41:16;101869.72;;;-2.68;66.37
75855;BME280;64502;59.976;30.316;2022-11-20T00:43:42;101876.66;;;-2.65;66.30
75855;BME280;64502;59.976;30.316;2022-11-20T00:46:10;101873.25;;;-2.63;66.89
75855;BME280;64502;59.976;30.316;2022-11-20T00:48:37;101864.66;;;-2.62;66.19
75855;BME280;64502;59.976;30.316;2022-11-20T00:51:03;101864.66;;;-2.62;65.98
75855;BME280;64502;59.976;30.316;2022-11-20T00:53:30;101858.56;;;-2.65;66.69
75855;BME280;64502;59.976;30.316;2022-11-20T00:56:03;101855.97;;;-2.65;66.81
75855;BME280;64502;59.976;30.316;2022-11-20T00:58:30;101855.03;;;-2.72;66.74
75855;BME280;64502;59.976;30.316;2022-11-20T01:01:01;101845.56;;;-2.72;66.79
75855;BME280;64502;59.976;30.316;2022-11-20T01:03:27;101848.19;;;-2.69;66.53
75855;BME280;64502;59.976;30.316;2022-11-20T01:05:53;101853.34;;;-2.70;67.07
75855;BME280;64502;59.976;30.316;2022-11-20T01:08:18;101854.25;;;-2.66;66.65
75855;BME280;64502;59.976;30.316;2022-11-20T01:10:43;101850.84;;;-2.62;66.51
75855;BME280;64502;59.976;30.316;2022-11-20T01:13:09;101846.66;;;-2.56;66.65
75855;BME280;64502;59.976;30.316;2022-11-20T01:15:53;101835.50;;;-2.52;65.81
75855;BME280;64502;59.976;30.316;2022-11-20T01:18:18;101831.16;;;-2.54;66.29
75855;BME280;64502;59.976;30.316;2022-11-20T01:20:44;101830.22;;;-2.61;66.58
75855;BME280;64502;59.976;30.316;2022-11-20T01:23:09;101846.59;;;-2.60;66.96
75855;BME280;64502;59.976;30.316;2022-11-20T01:25:35;101832.81;;;-2.59;66.68
75855;BME280;64502;59.976;30.316;2022-11-20T01:28:00;101832.88;;;-2.56;66.12
75855;BME280;64502;59.976;30.316;2022-11-20T01:30:26;101829.44;;;-2.55;66.06
75855;BME280;64502;59.976;30.316;2022-11-20T01:32:51;101823.44;;;-2.53;66.17
75855;BME280;64502;59.976;30.316;2022-11-20T01:35:17;101821.72;;;-2.52;66.16
75855;BME280;64502;59.976;30.316;2022-11-20T01:37:42;101825.19;;;-2.50;66.08
75855;BME280;64502;59.976;30.316;2022-11-20T01:40:08;101829.53;;;-2.48;66.14
75855;BME280;64502;59.976;30.316;2022-11-20T01:42:34;101826.97;;;-2.48;65.99
75855;BME280;64502;59.976;30.316;2022-11-20T01:48:09;101827.84;;;-2.46;65.83
75855;BME280;64502;59.976;30.316;2022-11-20T01:50:34;101821.84;;;-2.43;65.76
75855;BME280;64502;59.976;30.316;2022-11-20T01:53:03;101817.56;;;-2.42;65.59
75855;BME280;64502;59.976;30.316;2022-11-20T01:55:33;101821.00;;;-2.40;65.78
75855;BME280;64502;59.976;30.316;2022-11-20T01:58:01;101830.50;;;-2.38;66.06
75855;BME280;64502;59.976;30.316;2022-11-20T02:00:28;101824.53;;;-2.35;65.66
75855;BME280;64502;59.976;30.316;2022-11-20T02:02:57;101821.97;;;-2.34;65.73
75855;BME280;64502;59.976;30.316;2022-11-20T02:07:49;101810.78;;;-2.33;65.65
75855;BME280;64502;59.976;30.316;2022-11-20T02:10:16;101806.44;;;-2.37;65.38
75855;BME280;64502;59.976;30.316;2022-11-20T02:12:41;101808.09;;;-2.42;65.75
75855;BME280;64502;59.976;30.316;2022-11-20T02:15:26;101814.06;;;-2.43;65.42
75855;BME280;64502;59.976;30.316;2022-11-20T02:17:51;101814.94;;;-2.46;65.24
75855;BME280;64502;59.976;30.316;2022-11-20T02:20:17;101811.47;;;-2.46;65.49
75855;BME280;64502;59.976;30.316;2022-11-20T02:22:52;101810.59;;;-2.47;65.26
75855;BME280;64502;59.976;30.316;2022-11-20T02:25:20;101817.44;;;-2.49;65.72
75855;BME280;64502;59.976;30.316;2022-11-20T02:27:46;101819.22;;;-2.48;65.64
75855;BME280;64502;59.976;30.316;2022-11-20T02:30:12;101812.31;;;-2.47;65.65
75855;BME280;64502;59.976;30.316;2022-11-20T02:32:38;101810.59;;;-2.47;65.34
75855;BME280;64502;59.976;30.316;2022-11-20T02:35:08;101808.91;;;-2.44;65.69
75855;BME280;64502;59.976;30.316;2022-11-20T02:37:37;101807.22;;;-2.42;65.52
75855;BME280;64502;59.976;30.316;2022-11-20T02:40:04;101803.72;;;-2.46;65.53
75855;BME280;64502;59.976;30.316;2022-11-20T02:42:29;101804.53;;;-2.49;65.74
75855;BME280;64502;59.976;30.316;2022-11-20T02:44:55;101796.78;;;-2.49;65.96
75855;BME280;64502;59.976;30.316;2022-11-20T02:47:20;101798.50;;;-2.49;65.64
75855;BME280;64502;59.976;30.316;2022-11-20T02:49:46;101804.56;;;-2.47;65.74
75855;BME280;64502;59.976;30.316;2022-11-20T02:52:11;101788.19;;;-2.46;65.71
75855;BME280;64502;59.976;30.316;2022-11-20T02:54:37;101794.16;;;-2.53;66.08
75855;BME280;64502;59.976;30.316;2022-11-20T02:57:02;101792.41;;;-2.56;65.79
75855;BME280;64502;59.976;30.316;2022-11-20T02:59:28;101789.81;;;-2.56;65.50
75855;BME280;64502;59.976;30.316;2022-11-20T03:01:53;101782.91;;;-2.57;65.26
75855;BME280;64502;59.976;30.316;2022-11-20T03:04:19;101786.34;;;-2.58;65.92
75855;BME280;64502;59.976;30.316;2022-11-20T03:06:45;101781.16;;;-2.58;65.70
75855;BME280;64502;59.976;30.316;2022-11-20T03:09:10;101785.47;;;-2.57;66.29
75855;BME280;64502;59.976;30.316;2022-11-20T03:11:35;101785.47;;;-2.57;66.01
75855;BME280;64502;59.976;30.316;2022-11-20T03:14:03;101789.81;;;-2.56;65.67
75855;BME280;64502;59.976;30.316;2022-11-20T03:16:28;101778.63;;;-2.56;65.45
75855;BME280;64502;59.976;30.316;2022-11-20T03:18:54;101776.88;;;-2.57;65.61
75855;BME280;64502;59.976;30.316;2022-11-20T03:21:19;101786.38;;;-2.56;66.02
75855;BME280;64502;59.976;30.316;2022-11-20T03:23:45;101787.19;;;-2.57;65.99
75855;BME280;64502;59.976;30.316;2022-11-20T03:26:22;101784.66;;;-2.56;65.76
75855;BME280;64502;59.976;30.316;2022-11-20T03:28:53;101787.19;;;-2.59;66.18
75855;BME280;64502;59.976;30.316;2022-11-20T03:31:22;101786.31;;;-2.59;65.98
75855;BME280;64502;59.976;30.316;2022-11-20T03:33:48;101788.03;;;-2.61;65.99
75855;BME280;64502;59.976;30.316;2022-11-20T03:36:15;101783.69;;;-2.64;66.31
75855;BME280;64502;59.976;30.316;2022-11-20T03:38:41;101800.88;;;-2.66;66.12
75855;BME280;64502;59.976;30.316;2022-11-20T03:41:12;101791.34;;;-2.70;66.03
75855;BME280;64502;59.976;30.316;2022-11-20T03:43:38;101787.00;;;-2.73;65.96
75855;BME280;64502;59.976;30.316;2022-11-20T03:46:05;101789.59;;;-2.71;66.20
75855;BME280;64502;59.976;30.316;2022-11-20T03:48:31;101787.00;;;-2.73;66.43
75855;BME280;64502;59.976;30.316;2022-11-20T03:51:08;101787.03;;;-2.71;66.59
75855;BME280;64502;59.976;30.316;2022-11-20T03:53:33;101777.50;;;-2.74;66.24
75855;BME280;64502;59.976;30.316;2022-11-20T03:55:59;101787.00;;;-2.73;66.22
75855;BME280;64502;59.976;30.316;2022-11-20T03:58:24;101780.97;;;-2.73;66.55
75855;BME280;64502;59.976;30.316;2022-11-20T04:00:50;101781.84;;;-2.71;66.40
75855;BME280;64502;59.976;30.316;2022-11-20T04:03:15;101773.22;;;-2.75;66.51
75855;BME280;64502;59.976;30.316;2022-11-20T04:05:41;101777.47;;;-2.77;66.95
75855;BME280;64502;59.976;30.316;2022-11-20T04:08:06;101768.81;;;-2.80;66.34
75855;BME280;64502;59.976;30.316;2022-11-20T04:10:32;101778.34;;;-2.78;66.64
75855;BME280;64502;59.976;30.316;2022-11-20T04:12:57;101773.13;;;-2.79;66.83
75855;BME280;64502;59.976;30.316;2022-11-20T04:15:23;101767.97;;;-2.79;66.51
75855;BME280;64502;59.976;30.316;2022-11-20T04:17:48;101769.72;;;-2.77;66.18
75855;BME280;64502;59.976;30.316;2022-11-20T04:20:14;101764.59;;;-2.75;66.87
75855;BME280;64502;59.976;30.316;2022-11-20T04:22:39;101768.03;;;-2.75;66.29
75855;BME280;64502;59.976;30.316;2022-11-20T04:25:05;101770.63;;;-2.75;66.20
75855;BME280;64502;59.976;30.316;2022-11-20T04:27:31;101768.88;;;-2.76;66.43
75855;BME280;64502;59.976;30.316;2022-11-20T04:29:56;101769.75;;;-2.74;66.25
75855;BME280;64502;59.976;30.316;2022-11-20T04:32:21;101774.06;;;-2.74;66.58
75855;BME280;64502;59.976;30.316;2022-11-20T04:34:47;101761.13;;;-2.76;66.70
75855;BME280;64502;59.976;30.316;2022-11-20T04:37:12;101760.28;;;-2.75;66.36
75855;BME280;64502;59.976;30.316;2022-11-20T04:39:38;101765.47;;;-2.75;66.50
75855;BME280;64502;59.976;30.316;2022-11-20T04:42:04;101756.78;;;-2.80;66.51
75855;BME280;64502;59.976;30.316;2022-11-20T04:44:47;101768.88;;;-2.77;66.77
75855;BME280;64502;59.976;30.316;2022-11-20T04:47:13;101766.28;;;-2.77;66.43
75855;BME280;64502;59.976;30.316;2022-11-20T04:49:38;101763.69;;;-2.76;66.74
75855;BME280;64502;59.976;30.316;2022-11-20T04:52:04;101758.56;;;-2.74;67.37
75855;BME280;64502;59.976;30.316;2022-11-20T04:54:29;101754.22;;;-2.77;67.42
75855;BME280;64502;59.976;30.316;2022-11-20T04:56:55;101761.91;;;-2.83;67.85
75855;BME280;64502;59.976;30.316;2022-11-20T04:59:20;101764.44;;;-2.86;68.18
75855;BME280;64502;59.976;30.316;2022-11-20T05:01:46;101760.09;;;-2.87;68.93
75855;BME280;64502;59.976;30.316;2022-11-20T05:04:11;101766.16;;;-2.86;69.03
75855;BME280;64502;59.976;30.316;2022-11-20T05:06:37;101770.44;;;-2.87;69.27
75855;BME280;64502;59.976;30.316;2022-11-20T05:09:02;101767.03;;;-2.84;69.52
75855;BME280;64502;59.976;30.316;2022-11-20T05:11:28;101760.97;;;-2.88;69.36
75855;BME280;64502;59.976;30.316;2022-11-20T05:13:58;101765.28;;;-2.88;69.57
75855;BME280;64502;59.976;30.316;2022-11-20T05:16:24;101760.94;;;-2.91;69.47
75855;BME280;64502;59.976;30.316;2022-11-20T05:18:51;101772.09;;;-2.92;69.34
75855;BME280;64502;59.976;30.316;2022-11-20T05:21:17;101767.69;;;-2.99;69.47
75855;BME280;64502;59.976;30.316;2022-11-20T05:23:43;101772.81;;;-3.01;69.50
75855;BME280;64502;59.976;30.316;2022-11-20T05:26:17;101779.66;;;-3.04;69.64
75855;BME280;64502;59.976;30.316;2022-11-20T05:28:43;101772.72;;;-3.08;69.45
75855;BME280;64502;59.976;30.316;2022-11-20T05:31:11;101773.56;;;-3.09;69.52
75855;BME280;64502;59.976;30.316;2022-11-20T05:33:40;101770.13;;;-3.08;70.11
75855;BME280;64502;59.976;30.316;2022-11-20T05:36:07;101770.19;;;-3.05;69.59
75855;BME280;64502;59.976;30.316;2022-11-20T05:38:33;101771.88;;;-3.06;69.23
75855;BME280;64502;59.976;30.316;2022-11-20T05:41:13;101779.69;;;-3.03;69.21
75855;BME280;64502;59.976;30.316;2022-11-20T05:43:41;101775.38;;;-3.04;68.74
75855;BME280;64502;59.976;30.316;2022-11-20T05:46:09;101774.50;;;-3.04;68.40
75855;BME280;64502;59.976;30.316;2022-11-20T05:48:37;101774.50;;;-3.04;68.29
75855;BME280;64502;59.976;30.316;2022-11-20T05:51:05;101781.34;;;-3.08;67.68
75855;BME280;64502;59.976;30.316;2022-11-20T05:53:32;101773.56;;;-3.11;67.94
75855;BME280;64502;59.976;30.316;2022-11-20T05:56:06;101773.47;;;-3.14;68.43
75855;BME280;64502;59.976;30.316;2022-11-20T05:58:32;101774.31;;;-3.17;68.14
75855;BME280;64502;59.976;30.316;2022-11-20T06:01:09;101780.31;;;-3.18;68.00
75855;BME280;64502;59.976;30.316;2022-11-20T06:03:36;101775.16;;;-3.19;68.16
75855;BME280;64502;59.976;30.316;2022-11-20T06:06:02;101779.50;;;-3.15;68.04
75855;BME280;64502;59.976;30.316;2022-11-20T06:08:29;101778.66;;;-3.14;67.77
75855;BME280;64502;59.976;30.316;2022-11-20T06:10:55;101784.72;;;-3.12;67.98
75855;BME280;64502;59.976;30.316;2022-11-20T06:13:20;101775.28;;;-3.08;68.33
75855;BME280;64502;59.976;30.316;2022-11-20T06:15:53;101778.81;;;-3.05;68.09
75855;BME280;64502;59.976;30.316;2022-11-20T06:18:19;101777.06;;;-3.06;67.97
75855;BME280;64502;59.976;30.316;2022-11-20T06:20:45;101780.53;;;-3.04;68.09
75855;BME280;64502;59.976;30.316;2022-11-20T06:23:11;101782.28;;;-3.03;67.62
75855;BME280;64502;59.976;30.316;2022-11-20T06:25:42;101781.44;;;-3.00;68.02
75855;BME280;64502;59.976;30.316;2022-11-20T06:28:08;101777.13;;;-3.01;67.55
75855;BME280;64502;59.976;30.316;2022-11-20T06:30:34;101785.69;;;-3.05;67.44
75855;BME280;64502;59.976;30.316;2022-11-20T06:33:00;101780.50;;;-3.07;67.76
75855;BME280;64502;59.976;30.316;2022-11-20T06:35:26;101782.22;;;-3.06;67.75
75855;BME280;64502;59.976;30.316;2022-11-20T06:37:51;101786.56;;;-3.03;67.85
75855;BME280;64502;59.976;30.316;2022-11-20T06:40:17;101795.19;;;-3.01;67.76
75855;BME280;64502;59.976;30.316;2022-11-20T06:42:42;101784.00;;;-3.02;68.06
75855;BME280;64502;59.976;30.316;2022-11-20T06:45:08;101788.31;;;-3.01;67.54
75855;BME280;64502;59.976;30.316;2022-11-20T06:47:34;101786.66;;;-2.97;67.32
75855;BME280;64502;59.976;30.316;2022-11-20T06:49:59;101778.03;;;-2.99;67.37
75855;BME280;64502;59.976;30.316;2022-11-20T06:52:25;101785.78;;;-2.99;67.44
75855;BME280;64502;59.976;30.316;2022-11-20T06:54:50;101791.84;;;-2.97;67.31
75855;BME280;64502;59.976;30.316;2022-11-20T06:57:16;101790.13;;;-2.95;67.48
75855;BME280;64502;59.976;30.316;2022-11-20T06:59:41;101784.94;;;-2.95;66.85
75855;BME280;64502;59.976;30.316;2022-11-20T07:02:11;101784.94;;;-2.95;66.63
75855;BME280;64502;59.976;30.316;2022-11-20T07:04:37;101794.41;;;-2.96;66.40
75855;BME280;64502;59.976;30.316;2022-11-20T07:07:03;101789.25;;;-2.96;66.86
75855;BME280;64502;59.976;30.316;2022-11-20T07:09:28;101794.47;;;-2.94;66.60
75855;BME280;64502;59.976;30.316;2022-11-20T07:11:53;101785.00;;;-2.94;66.69
75855;BME280;64502;59.976;30.316;2022-11-20T07:14:19;101783.28;;;-2.93;66.82
75855;BME280;64502;59.976;30.316;2022-11-20T07:16:44;101788.47;;;-2.90;66.61
75855;BME280;64502;59.976;30.316;2022-11-20T07:19:10;101795.44;;;-2.86;66.68
75855;BME280;64502;59.976;30.316;2022-11-20T07:21:35;101787.69;;;-2.86;66.98
75855;BME280;64502;59.976;30.316;2022-11-20T07:24:02;101793.69;;;-2.88;66.92
75855;BME280;64502;59.976;30.316;2022-11-20T07:26:28;101791.06;;;-2.92;66.79
75855;BME280;64502;59.976;30.316;2022-11-20T07:28:53;101794.56;;;-2.86;66.95
75855;BME280;64502;59.976;30.316;2022-11-20T07:31:19;101798.84;;;-2.87;66.87
75855;BME280;64502;59.976;30.316;2022-11-20T07:33:44;101799.69;;;-2.88;66.73
75855;BME280;64502;59.976;30.316;2022-11-20T07:36:10;101798.84;;;-2.88;66.56
75855;BME280;64502;59.976;30.316;2022-11-20T07:38:37;101803.16;;;-2.87;66.78
75855;BME280;64502;59.976;30.316;2022-11-20T07:41:02;101800.63;;;-2.83;66.46
75855;BME280;64502;59.976;30.316;2022-11-20T07:43:28;101799.00;;;-2.78;66.69
75855;BME280;64502;59.976;30.316;2022-11-20T07:45:58;101812.88;;;-2.70;66.19
75855;BME280;64502;59.976;30.316;2022-11-20T07:48:24;101810.31;;;-2.68;66.58
75855;BME280;64502;59.976;30.316;2022-11-20T07:50:53;101806.91;;;-2.65;66.63
75855;BME280;64502;59.976;30.316;2022-11-20T07:53:19;101806.09;;;-2.61;66.33
75855;BME280;64502;59.976;30.316;2022-11-20T07:55:47;101819.84;;;-2.62;66.39
75855;BME280;64502;59.976;30.316;2022-11-20T07:58:12;101821.59;;;-2.61;66.05
75855;BME280;64502;59.976;30.316;2022-11-20T08:00:40;101820.75;;;-2.62;66.50
75855;BME280;64502;59.976;30.316;2022-11-20T08:03:06;101811.31;;;-2.58;66.66
75855;BME280;64502;59.976;30.316;2022-11-20T08:05:32;101812.22;;;-2.56;67.16
75855;BME280;64502;59.976;30.316;2022-11-20T08:07:58;101794.13;;;-2.56;66.90
75855;BME280;64502;59.976;30.316;2022-11-20T08:10:24;101797.59;;;-2.53;67.14
75855;BME280;64502;59.976;30.316;2022-11-20T08:12:51;101802.03;;;-2.46;67.27
75855;BME280;64502;59.976;30.316;2022-11-20T08:15:37;101810.66;;;-2.40;66.37
75855;BME280;64502;59.976;30.316;2022-11-20T08:18:09;101803.88;;;-2.34;66.38
75855;BME280;64502;59.976;30.316;2022-11-20T08:20:36;101807.31;;;-2.33;66.72
75855;BME280;64502;59.976;30.316;2022-11-20T08:23:04;101801.31;;;-2.31;66.21
75855;BME280;64502;59.976;30.316;2022-11-20T08:25:31;101809.94;;;-2.30;66.58
75855;BME280;64502;59.976;30.316;2022-11-20T08:27:58;101801.31;;;-2.31;66.68
75855;BME280;64502;59.976;30.316;2022-11-20T08:30:24;101809.97;;;-2.29;66.44
75855;BME280;64502;59.976;30.316;2022-11-20T08:32:50;101809.94;;;-2.30;66.01
75855;BME280;64502;59.976;30.316;2022-11-20T08:35:15;101815.94;;;-2.33;66.04
75855;BME280;64502;59.976;30.316;2022-11-20T08:37:41;101815.00;;;-2.39;67.24
75855;BME280;64502;59.976;30.316;2022-11-20T08:40:10;101814.16;;;-2.38;66.80
75855;BME280;64502;59.976;30.316;2022-11-20T08:42:36;101811.59;;;-2.37;67.31
75855;BME280;64502;59.976;30.316;2022-11-20T08:45:01;101821.16;;;-2.31;67.25
75855;BME280;64502;59.976;30.316;2022-11-20T08:47:26;101820.31;;;-2.29;67.48
75855;BME280;64502;59.976;30.316;2022-11-20T08:49:52;101823.75;;;-2.28;67.06
75855;BME280;64502;59.976;30.316;2022-11-20T08:52:17;101818.59;;;-2.27;67.25
75855;BME280;64502;59.976;30.316;2022-11-20T08:54:43;101814.28;;;-2.28;66.92
75855;BME280;64502;59.976;30.316;2022-11-20T08:57:08;101828.91;;;-2.30;67.09
75855;BME280;64502;59.976;30.316;2022-11-20T08:59:34;101819.44;;;-2.29;67.92
75855;BME280;64502;59.976;30.316;2022-11-20T09:01:59;101827.22;;;-2.28;66.78
75855;BME280;64502;59.976;30.316;2022-11-20T09:04:25;101815.19;;;-2.24;66.65
75855;BME280;64502;59.976;30.316;2022-11-20T09:06:50;101822.09;;;-2.21;67.12
75855;BME280;64502;59.976;30.316;2022-11-20T09:09:17;101825.59;;;-2.21;66.52
75855;BME280;64502;59.976;30.316;2022-11-20T09:11:44;101815.25;;;-2.19;67.30
75855;BME280;64502;59.976;30.316;2022-11-20T09:14:09;101814.44;;;-2.15;67.11
75855;BME280;64502;59.976;30.316;2022-11-20T09:16:34;101809.34;;;-2.09;66.57
75855;BME280;64502;59.976;30.316;2022-11-20T09:19:00;101809.41;;;-2.03;67.01
75855;BME280;64502;59.976;30.316;2022-11-20T09:21:26;101808.63;;;-1.96;66.57
75855;BME280;64502;59.976;30.316;2022-11-20T09:23:51;101792.28;;;-1.93;66.07
75855;BME280;64502;59.976;30.316;2022-11-20T09:26:17;101802.53;;;-1.99;65.82
75855;BME280;64502;59.976;30.316;2022-11-20T09:28:43;101798.25;;;-1.99;65.85
75855;BME280;64502;59.976;30.316;2022-11-20T09:31:14;101800.00;;;-1.95;65.61
75855;BME280;64502;59.976;30.316;2022-11-20T09:33:43;101800.91;;;-1.93;64.67
75855;BME280;64502;59.976;30.316;2022-11-20T09:36:08;101817.25;;;-1.95;65.53
75855;BME280;64502;59.976;30.316;2022-11-20T09:38:34;101808.63;;;-1.94;65.60
75855;BME280;64502;59.976;30.316;2022-11-20T09:41:04;101814.72;;;-1.89;65.51
75855;BME280;64502;59.976;30.316;2022-11-20T09:43:52;101790.63;;;-1.84;65.87
75855;BME280;64502;59.976;30.316;2022-11-20T09:46:29;101789.81;;;-1.78;65.58
75855;BME280;64502;59.976;30.316;2022-11-20T09:52:01;101795.94;;;-1.70;64.29
75855;BME280;64502;59.976;30.316;2022-11-20T09:54:38;101792.50;;;-1.70;64.84
75855;BME280;64502;59.976;30.316;2022-11-20T09:57:37;101790.78;;;-1.68;63.55
75855;BME280;64502;59.976;30.316;2022-11-20T10:00:08;101795.00;;;-1.80;63.88
75855;BME280;64502;59.976;30.316;2022-11-20T10:02:41;101795.78;;;-1.88;63.74
75855;BME280;64502;59.976;30.316;2022-11-20T10:05:18;101799.97;;;-1.98;63.99
75855;BME280;64502;59.976;30.316;2022-11-20T10:07:46;101787.88;;;-2.01;64.68
75855;BME280;64502;59.976;30.316;2022-11-20T10:10:30;101793.03;;;-2.02;65.46
75855;BME280;64502;59.976;30.316;2022-11-20T10:21:49;101790.50;;;-1.99;65.26
75855;BME280;64502;59.976;30.316;2022-11-20T10:29:29;101789.84;;;-1.75;64.65
75855;BME280;64502;59.976;30.316;2022-11-20T10:32:02;101792.50;;;-1.70;64.25
75855;BME280;64502;59.976;30.316;2022-11-20T10:37:01;101785.72;;;-1.58;63.94
75855;BME280;64502;59.976;30.316;2022-11-20T10:41:58;101801.22;;;-1.61;63.11
75855;BME280;64502;59.976;30.316;2022-11-20T10:44:28;101797.75;;;-1.61;63.74
75855;BME280;64502;59.976;30.316;2022-11-20T10:47:18;101800.28;;;-1.67;63.98
75855;BME280;64502;59.976;30.316;2022-11-20T10:49:47;101801.97;;;-1.69;64.75
75855;BME280;64502;59.976;30.316;2022-11-20T11:00:20;101788.25;;;-1.62;64.08
75855;BME280;64502;59.976;30.316;2022-11-20T11:02:49;101789.97;;;-1.61;63.52
75855;BME280;64502;59.976;30.316;2022-11-20T11:05:43;101791.78;;;-1.55;64.15
75855;BME280;64502;59.976;30.316;2022-11-20T11:08:17;101796.97;;;-1.55;63.96
75855;BME280;64502;59.976;30.316;2022-11-20T11:13:31;101801.28;;;-1.51;63.95
75855;BME280;64502;59.976;30.316;2022-11-20T11:15:58;101794.31;;;-1.59;64.05
75855;BME280;64502;59.976;30.316;2022-11-20T11:18:24;101788.25;;;-1.62;63.97
75855;BME280;64502;59.976;30.316;2022-11-20T11:20:51;101791.72;;;-1.62;63.93
75855;BME280;64502;59.976;30.316;2022-11-20T11:23:31;101794.34;;;-1.57;64.17
75855;BME280;64502;59.976;30.316;2022-11-20T11:25:59;101795.22;;;-1.57;63.74
75855;BME280;64502;59.976;30.316;2022-11-20T11:28:25;101797.78;;;-1.57;63.75
75855;BME280;64502;59.976;30.316;2022-11-20T11:30:53;101792.66;;;-1.55;64.08
75855;BME280;64502;59.976;30.316;2022-11-20T11:33:24;101796.97;;;-1.54;64.17
75855;BME280;64502;59.976;30.316;2022-11-20T11:35:54;101799.53;;;-1.54;63.70
75855;BME280;64502;59.976;30.316;2022-11-20T11:38:36;101793.50;;;-1.54;64.11
75855;BME280;64502;59.976;30.316;2022-11-20T11:41:04;101786.59;;;-1.57;64.50
75855;BME280;64502;59.976;30.316;2022-11-20T11:43:33;101793.47;;;-1.56;63.61
75855;BME280;64502;59.976;30.316;2022-11-20T11:51:34;101796.06;;;-1.58;64.22
75855;BME280;64502;59.976;30.316;2022-11-20T11:54:08;101790.88;;;-1.61;64.30
75855;BME280;64502;59.976;30.316;2022-11-20T11:56:36;101794.28;;;-1.65;63.99
75855;BME280;64502;59.976;30.316;2022-11-20T11:59:04;101789.97;;;-1.63;63.94
75855;BME280;64502;59.976;30.316;2022-11-20T12:01:41;101796.06;;;-1.61;64.55
75855;BME280;64502;59.976;30.316;2022-11-20T12:07:06;101798.63;;;-1.59;64.00
75855;BME280;64502;59.976;30.316;2022-11-20T12:09:46;101797.75;;;-1.61;64.71
75855;BME280;64502;59.976;30.316;2022-11-20T12:12:23;101796.88;;;-1.63;64.67
75855;BME280;64502;59.976;30.316;2022-11-20T12:14:52;101795.16;;;-1.63;64.79
75855;BME280;64502;59.976;30.316;2022-11-20T12:17:19;101796.84;;;-1.65;64.34
75855;BME280;64502;59.976;30.316;2022-11-20T12:19:46;101804.59;;;-1.68;64.05
75855;BME280;64502;59.976;30.316;2022-11-20T12:24:54;101806.31;;;-1.68;64.36
75855;BME280;64502;59.976;30.316;2022-11-20T12:30:24;101801.94;;;-1.72;65.04
75855;BME280;64502;59.976;30.316;2022-11-20T12:36:06;101794.19;;;-1.72;64.51
75855;BME280;64502;59.976;30.316;2022-11-20T12:44:04;101806.25;;;-1.76;65.23
75855;BME280;64502;59.976;30.316;2022-11-20T12:52:56;101809.69;;;-1.77;64.38
75855;BME280;64502;59.976;30.316;2022-11-20T12:58:17;101804.47;;;-1.82;64.81
75855;BME280;64502;59.976;30.316;2022-11-20T13:06:51;101805.94;;;-2.04;65.81
75855;BME280;64502;59.976;30.316;2022-11-20T13:09:19;101802.44;;;-2.09;65.89
75855;BME280;64502;59.976;30.316;2022-11-20T13:19:58;101816.97;;;-2.18;66.23
75855;BME280;64502;59.976;30.316;2022-11-20T13:22:26;101811.78;;;-2.20;66.54
75855;BME280;64502;59.976;30.316;2022-11-20T13:24:52;101816.06;;;-2.24;66.61
75855;BME280;64502;59.976;30.316;2022-11-20T13:27:20;101814.34;;;-2.23;66.75
75855;BME280;64502;59.976;30.316;2022-11-20T13:32:50;101825.59;;;-2.19;66.94
75855;BME280;64502;59.976;30.316;2022-11-20T13:38:00;101829.94;;;-2.17;67.04
75855;BME280;64502;59.976;30.316;2022-11-20T13:40:26;101840.28;;;-2.17;66.88
75855;BME280;64502;59.976;30.316;2022-11-20T13:43:49;101835.97;;;-2.16;67.28
75855;BME280;64502;59.976;30.316;2022-11-20T13:46:04;101837.63;;;-2.21;66.71
75855;BME280;64502;59.976;30.316;2022-11-20T13:48:32;101840.16;;;-2.26;67.01
75855;BME280;64502;59.976;30.316;2022-11-20T13:54:31;101843.50;;;-2.33;67.37
75855;BME280;64502;59.976;30.316;2022-11-20T14:00:21;101854.66;;;-2.36;67.81
75855;BME280;64502;59.976;30.316;2022-11-20T14:05:25;101864.03;;;-2.44;68.19
75855;BME280;64502;59.976;30.316;2022-11-20T14:07:51;101870.91;;;-2.46;68.02
75855;BME280;64502;59.976;30.316;2022-11-20T14:10:26;101864.13;;;-2.39;68.01
75855;BME280;64502;59.976;30.316;2022-11-20T14:12:52;101866.75;;;-2.35;68.33
75855;BME280;64502;59.976;30.316;2022-11-20T14:15:31;101868.56;;;-2.28;68.10
75855;BME280;64502;59.976;30.316;2022-11-20T14:17:57;101877.25;;;-2.22;68.11
75855;BME280;64502;59.976;30.316;2022-11-20T14:20:28;101873.03;;;-2.16;68.07
75855;BME280;64502;59.976;30.316;2022-11-20T14:22:55;101867.03;;;-2.15;67.86
75855;BME280;64502;59.976;30.316;2022-11-20T14:25:25;101876.53;;;-2.12;68.27